sensor_id;sensor_type;location;lat;lon;timestamp;pressure;altitude;pressure_sealevel;temperature;humidity
6899;BME280;3488;42.616;23.350;2023-10-19T00:00:16;62719.19;;;7.01;100.00
6899;BME280;3488;42.616;23.350;2023-10-19T00:02:49;62720.75;;;7.02;100.00
6899;BME280;3488;42.616;23.350;2023-10-19T00:05:20;62722.75;;;7.02;100.00
6899;BME280;3488;42.616;23.350;2023-10-19T00:07:47;62726.41;;;7.08;100.00
6899;BME280;3488;42.616;23.350;2023-10-19T00:10:13;62729.50;;;7.11;100.00
6899;BME280;3488;42.616;23.350;2023-10-19T00:12:42;62723.84;;;7.06;100.00
6899;BME280;3488;42.616;23.350;2023-10-19T00:15:20;62727.50;;;7.12;100.00
6899;BME280;3488;42.616;23.350;2023-10-19T00:17:50;62730.59;;;7.15;100.00
6899;BME280;3488;42.616;23.350;2023-10-19T00:20:20;62740.31;;;7.19;100.00
6899;BME280;3488;42.616;23.350;2023-10-19T00:23:12;62749.63;;;7.31;100.00
6899;BME280;3488;42.616;23.350;2023-10-19T00:25:44;62762.06;;;7.45;100.00
6899;BME280;3488;42.616;23.350;2023-10-19T00:28:17;62773.88;;;7.54;100.00
6899;BME280;3488;42.616;23.350;2023-10-19T00:30:45;62775.47;;;7.58;100.00
6899;BME280;3488;42.616;23.350;2023-10-19T00:33:14;62787.31;;;7.67;100.00
6899;BME280;3488;42.616;23.350;2023-10-19T00:35:46;62797.53;;;7.72;100.00
6899;BME280;3488;42.616;23.350;2023-10-19T00:38:25;62805.75;;;7.78;100.00
6899;BME280;3488;42.616;23.350;2023-10-19T00:41:05;62805.31;;;7.82;100.00
6899;BME280;3488;42.616;23.350;2023-10-19T00:43:38;62806.38;;;7.83;100.00
6899;BME280;3488;42.616;23.350;2023-10-19T00:46:11;62809.50;;;7.89;100.00
6899;BME280;3488;42.616;23.350;2023-10-19T00:48:48;62805.41;;;7.87;100.00
6899;BME280;3488;42.616;23.350;2023-10-19T00:51:18;62811.63;;;7.93;100.00
6899;BME280;3488;42.616;23.350;2023-10-19T00:54:10;62819.25;;;7.96;100.00
6899;BME280;3488;42.616;23.350;2023-10-19T00:56:42;62820.91;;;8.02;100.00
6899;BME280;3488;42.616;23.350;2023-10-19T00:59:13;62829.13;;;8.08;100.00
6899;BME280;3488;42.616;23.350;2023-10-19T01:01:50;62841.94;;;8.15;100.00
6899;BME280;3488;42.616;23.350;2023-10-19T01:04:19;62842.09;;;8.23;100.00
6899;BME280;3488;42.616;23.350;2023-10-19T01:06:48;62842.66;;;8.26;100.00
6899;BME280;3488;42.616;23.350;2023-10-19T01:09:27;62857.50;;;8.33;100.00
6899;BME280;3488;42.616;23.350;2023-10-19T01:11:54;62861.13;;;8.37;100.00
6899;BME280;3488;42.616;23.350;2023-10-19T01:14:24;62857.53;;;8.36;100.00
6899;BME280;3488;42.616;23.350;2023-10-19T01:16:54;62860.16;;;8.41;100.00
6899;BME280;3488;42.616;23.350;2023-10-19T01:19:22;62867.88;;;8.46;100.00
6899;BME280;3488;42.616;23.350;2023-10-19T01:21:50;62871.47;;;8.49;100.00
6899;BME280;3488;42.616;23.350;2023-10-19T01:24:20;62873.50;;;8.49;100.00
6899;BME280;3488;42.616;23.350;2023-10-19T01:26:59;62874.63;;;8.55;100.00
6899;BME280;3488;42.616;23.350;2023-10-19T01:29:26;62881.84;;;8.62;100.00
6899;BME280;3488;42.616;23.350;2023-10-19T01:31:54;62888.44;;;8.61;100.00
6899;BME280;3488;42.616;23.350;2023-10-19T01:34:22;62894.16;;;8.69;100.00
6899;BME280;3488;42.616;23.350;2023-10-19T01:36:52;62893.69;;;8.71;100.00
6899;BME280;3488;42.616;23.350;2023-10-19T01:39:22;62879.88;;;8.65;100.00
6899;BME280;3488;42.616;23.350;2023-10-19T01:41:48;62893.72;;;8.73;100.00
6899;BME280;3488;42.616;23.350;2023-10-19T01:44:16;62895.16;;;8.67;100.00
6899;BME280;3488;42.616;23.350;2023-10-19T01:46:42;62895.16;;;8.67;100.00
6899;BME280;3488;42.616;23.350;2023-10-19T01:49:11;62887.97;;;8.63;100.00
6899;BME280;3488;42.616;23.350;2023-10-19T01:51:37;62880.38;;;8.63;100.00
6899;BME280;3488;42.616;23.350;2023-10-19T01:54:05;62892.06;;;8.64;100.00
6899;BME280;3488;42.616;23.350;2023-10-19T01:56:34;62877.22;;;8.57;100.00
6899;BME280;3488;42.616;23.350;2023-10-19T01:59:02;62874.59;;;8.52;100.00
6899;BME280;3488;42.616;23.350;2023-10-19T02:01:29;62874.09;;;8.54;100.00
6899;BME280;3488;42.616;23.350;2023-10-19T02:03:59;62886.94;;;8.62;100.00
6899;BME280;3488;42.616;23.350;2023-10-19T02:06:27;62888.44;;;8.61;100.00
6899;BME280;3488;42.616;23.350;2023-10-19T02:09:01;62889.53;;;8.64;100.00
6899;BME280;3488;42.616;23.350;2023-10-19T02:11:36;62875.63;;;8.53;100.00
6899;BME280;3488;42.616;23.350;2023-10-19T02:14:03;62873.13;;;8.56;100.00
6899;BME280;3488;42.616;23.350;2023-10-19T02:16:39;62865.81;;;8.44;100.00
6899;BME280;3488;42.616;23.350;2023-10-19T02:19:06;62855.56;;;8.39;100.00
6899;BME280;3488;42.616;23.350;2023-10-19T02:21:33;62870.97;;;8.49;100.00
6899;BME280;3488;42.616;23.350;2023-10-19T02:24:06;62872.00;;;8.50;100.00
6899;BME280;3488;42.616;23.350;2023-10-19T02:26:33;62868.44;;;8.49;100.00
6899;BME280;3488;42.616;23.350;2023-10-19T02:29:02;62883.38;;;8.61;100.00
6899;BME280;3488;42.616;23.350;2023-10-19T02:31:33;62890.00;;;8.62;100.00
6899;BME280;3488;42.616;23.350;2023-10-19T02:34:03;62884.88;;;8.60;100.00
6899;BME280;3488;42.616;23.350;2023-10-19T02:36:31;62880.22;;;8.55;100.00
6899;BME280;3488;42.616;23.350;2023-10-19T02:38:59;62860.13;;;8.38;100.00
6899;BME280;3488;42.616;23.350;2023-10-19T02:41:26;62857.53;;;8.36;100.00
6899;BME280;3488;42.616;23.350;2023-10-19T02:43:53;62854.34;;;8.28;100.00
6899;BME280;3488;42.616;23.350;2023-10-19T02:46:28;62842.59;;;8.24;100.00
6899;BME280;3488;42.616;23.350;2023-10-19T02:48:56;62838.88;;;8.15;100.00
6899;BME280;3488;42.616;23.350;2023-10-19T02:51:22;62834.81;;;8.13;100.00
6899;BME280;3488;42.616;23.350;2023-10-19T02:53:49;62823.94;;;8.03;100.00
6899;BME280;3488;42.616;23.350;2023-10-19T02:56:16;62817.25;;;7.96;100.00
6899;BME280;3488;42.616;23.350;2023-10-19T02:58:45;62809.97;;;7.87;100.00
6899;BME280;3488;42.616;23.350;2023-10-19T03:01:16;62799.19;;;7.79;100.00
6899;BME280;3488;42.616;23.350;2023-10-19T03:03:50;62785.81;;;7.68;100.00
6899;BME280;3488;42.616;23.350;2023-10-19T03:06:20;62769.81;;;7.53;100.00
6899;BME280;3488;42.616;23.350;2023-10-19T03:08:47;62772.84;;;7.53;100.00
6899;BME280;3488;42.616;23.350;2023-10-19T03:11:18;62766.09;;;7.44;100.00
6899;BME280;3488;42.616;23.350;2023-10-19T03:13:45;62754.31;;;7.38;100.00
6899;BME280;3488;42.616;23.350;2023-10-19T03:16:17;62737.31;;;7.21;100.00
6899;BME280;3488;42.616;23.350;2023-10-19T03:18:43;62745.03;;;7.29;100.00
6899;BME280;3488;42.616;23.350;2023-10-19T03:21:11;62744.53;;;7.28;100.00
6899;BME280;3488;42.616;23.350;2023-10-19T03:23:37;62744.41;;;7.23;100.00
6899;BME280;3488;42.616;23.350;2023-10-19T03:26:06;62744.38;;;7.21;100.00
6899;BME280;3488;42.616;23.350;2023-10-19T03:28:57;62740.81;;;7.20;100.00
6899;BME280;3488;42.616;23.350;2023-10-19T03:31:28;62734.56;;;7.11;100.00
6899;BME280;3488;42.616;23.350;2023-10-19T03:33:58;62724.31;;;7.03;100.00
6899;BME280;3488;42.616;23.350;2023-10-19T03:36:32;62715.53;;;6.95;100.00
6899;BME280;3488;42.616;23.350;2023-10-19T03:38:59;62715.59;;;6.97;100.00
6899;BME280;3488;42.616;23.350;2023-10-19T03:41:37;62713.00;;;6.95;100.00
6899;BME280;3488;42.616;23.350;2023-10-19T03:44:05;62707.34;;;6.89;100.00
6899;BME280;3488;42.616;23.350;2023-10-19T03:46:33;62707.84;;;6.90;100.00
6899;BME280;3488;42.616;23.350;2023-10-19T03:49:03;62703.78;;;6.88;100.00
6899;BME280;3488;42.616;23.350;2023-10-19T03:51:37;62691.81;;;6.72;100.00
6899;BME280;3488;42.616;23.350;2023-10-19T03:54:23;62685.16;;;6.68;100.00
6899;BME280;3488;42.616;23.350;2023-10-19T03:56:51;62687.22;;;6.70;100.00
6899;BME280;3488;42.616;23.350;2023-10-19T03:59:18;62687.75;;;6.70;100.00
6899;BME280;3488;42.616;23.350;2023-10-19T04:01:47;62687.22;;;6.70;100.00
6899;BME280;3488;42.616;23.350;2023-10-19T04:04:14;62691.34;;;6.74;100.00
6899;BME280;3488;42.616;23.350;2023-10-19T04:06:43;62687.28;;;6.72;100.00
6899;BME280;3488;42.616;23.350;2023-10-19T04:09:13;62685.72;;;6.71;100.00
6899;BME280;3488;42.616;23.350;2023-10-19T04:11:43;62683.09;;;6.66;100.00
6899;BME280;3488;42.616;23.350;2023-10-19T04:14:17;62678.44;;;6.61;100.00
6899;BME280;3488;42.616;23.350;2023-10-19T04:16:45;62671.22;;;6.54;100.00
6899;BME280;3488;42.616;23.350;2023-10-19T04:19:14;62664.59;;;6.50;100.00
6899;BME280;3488;42.616;23.350;2023-10-19T04:21:43;62663.00;;;6.46;100.00
6899;BME280;3488;42.616;23.350;2023-10-19T04:24:12;62666.53;;;6.47;100.00
6899;BME280;3488;42.616;23.350;2023-10-19T04:26:40;62666.03;;;6.47;100.00
6899;BME280;3488;42.616;23.350;2023-10-19T04:29:08;62663.44;;;6.44;100.00
6899;BME280;3488;42.616;23.350;2023-10-19T04:31:37;62657.31;;;6.41;100.00
6899;BME280;3488;42.616;23.350;2023-10-19T04:34:06;62656.78;;;6.40;100.00
6899;BME280;3488;42.616;23.350;2023-10-19T04:36:34;62658.34;;;6.42;100.00
6899;BME280;3488;42.616;23.350;2023-10-19T04:39:06;62656.28;;;6.40;100.00
6899;BME280;3488;42.616;23.350;2023-10-19T04:41:37;62656.28;;;6.40;100.00
6899;BME280;3488;42.616;23.350;2023-10-19T04:44:05;62653.25;;;6.39;100.00
6899;BME280;3488;42.616;23.350;2023-10-19T04:46:33;62654.75;;;6.38;100.00
6899;BME280;3488;42.616;23.350;2023-10-19T04:49:00;62657.31;;;6.41;100.00
6899;BME280;3488;42.616;23.350;2023-10-19T04:51:29;62649.59;;;6.33;100.00
6899;BME280;3488;42.616;23.350;2023-10-19T04:53:56;62657.75;;;6.36;100.00
6899;BME280;3488;42.616;23.350;2023-10-19T04:56:24;62659.28;;;6.38;100.00
6899;BME280;3488;42.616;23.350;2023-10-19T04:58:52;62653.69;;;6.37;100.00
6899;BME280;3488;42.616;23.350;2023-10-19T05:01:20;62652.69;;;6.36;100.00
6899;BME280;3488;42.616;23.350;2023-10-19T05:03:47;62655.22;;;6.36;100.00
6899;BME280;3488;42.616;23.350;2023-10-19T05:06:14;62651.63;;;6.35;100.00
6899;BME280;3488;42.616;23.350;2023-10-19T05:08:41;62651.63;;;6.35;100.00
6899;BME280;3488;42.616;23.350;2023-10-19T05:11:08;62653.69;;;6.37;100.00
6899;BME280;3488;42.616;23.350;2023-10-19T05:13:37;62648.09;;;6.34;100.00
6899;BME280;3488;42.616;23.350;2023-10-19T05:16:05;62652.16;;;6.36;100.00
6899;BME280;3488;42.616;23.350;2023-10-19T05:18:33;62653.25;;;6.39;100.00
6899;BME280;3488;42.616;23.350;2023-10-19T05:21:00;62666.59;;;6.50;100.00
6899;BME280;3488;42.616;23.350;2023-10-19T05:23:27;62667.69;;;6.53;100.00
6899;BME280;3488;42.616;23.350;2023-10-19T05:26:00;62675.81;;;6.56;100.00
6899;BME280;3488;42.616;23.350;2023-10-19T05:28:28;62681.53;;;6.64;100.00
6899;BME280;3488;42.616;23.350;2023-10-19T05:30:56;62690.81;;;6.73;100.00
6899;BME280;3488;42.616;23.350;2023-10-19T05:33:24;62705.19;;;6.82;100.00
6899;BME280;3488;42.616;23.350;2023-10-19T05:35:51;62706.88;;;6.91;100.00
6899;BME280;3488;42.616;23.350;2023-10-19T05:38:18;62724.31;;;7.03;100.00
6899;BME280;3488;42.616;23.350;2023-10-19T05:40:48;62735.19;;;7.17;100.00
6899;BME280;3488;42.616;23.350;2023-10-19T05:43:15;62754.28;;;7.35;100.00
6899;BME280;3488;42.616;23.350;2023-10-19T05:45:42;62765.69;;;7.49;100.00
6899;BME280;3488;42.616;23.350;2023-10-19T05:48:11;62734.69;;;7.16;100.00
6899;BME280;3488;42.616;23.350;2023-10-19T05:50:38;62734.56;;;7.11;100.00
6899;BME280;3488;42.616;23.350;2023-10-19T05:53:05;62739.31;;;7.21;100.00
6899;BME280;3488;42.616;23.350;2023-10-19T05:55:32;62752.16;;;7.31;100.00
6899;BME280;3488;42.616;23.350;2023-10-19T05:58:02;62746.06;;;7.30;100.00
6899;BME280;3488;42.616;23.350;2023-10-19T06:00:30;62737.81;;;7.22;100.00
6899;BME280;3488;42.616;23.350;2023-10-19T06:02:57;62769.34;;;7.55;100.00
6899;BME280;3488;42.616;23.350;2023-10-19T06:05:26;62790.41;;;7.70;100.00
6899;BME280;3488;42.616;23.350;2023-10-19T06:07:53;62794.56;;;7.77;100.00
6899;BME280;3488;42.616;23.350;2023-10-19T06:10:21;62806.94;;;7.86;100.00
6899;BME280;3488;42.616;23.350;2023-10-19T06:12:50;62825.50;;;8.04;100.00
6899;BME280;3488;42.616;23.350;2023-10-19T06:15:19;62817.28;;;7.99;100.00
6899;BME280;3488;42.616;23.350;2023-10-19T06:17:49;62815.28;;;7.99;100.00
6899;BME280;3488;42.616;23.350;2023-10-19T06:20:17;62857.06;;;8.38;100.00
6899;BME280;3488;42.616;23.350;2023-10-19T06:22:51;62896.78;;;8.74;100.00
6899;BME280;3488;42.616;23.350;2023-10-19T06:25:20;62915.88;;;8.90;100.00
6899;BME280;3488;42.616;23.350;2023-10-19T06:27:50;62945.31;;;9.18;100.00
6899;BME280;3488;42.616;23.350;2023-10-19T06:30:18;62948.38;;;9.19;100.00
6899;BME280;3488;42.616;23.350;2023-10-19T06:32:50;62963.41;;;9.36;100.00
6899;BME280;3488;42.616;23.350;2023-10-19T06:35:17;62964.03;;;9.42;100.00
6899;BME280;3488;42.616;23.350;2023-10-19T06:37:46;62992.94;;;9.67;100.00
6899;BME280;3488;42.616;23.350;2023-10-19T06:40:15;63000.19;;;9.74;100.00
6899;BME280;3488;42.616;23.350;2023-10-19T06:42:43;63011.50;;;9.83;100.00
6899;BME280;3488;42.616;23.350;2023-10-19T06:45:11;62992.97;;;9.70;100.00
6899;BME280;3488;42.616;23.350;2023-10-19T06:47:40;62994.56;;;9.74;100.00
6899;BME280;3488;42.616;23.350;2023-10-19T06:50:09;63004.31;;;9.78;100.00
6899;BME280;3488;42.616;23.350;2023-10-19T06:52:37;62981.53;;;9.54;100.00
6899;BME280;3488;42.616;23.350;2023-10-19T06:55:05;62995.03;;;9.72;100.00
6899;BME280;3488;42.616;23.350;2023-10-19T06:57:38;63010.03;;;9.86;100.00
6899;BME280;3488;42.616;23.350;2023-10-19T07:00:06;63037.97;;;10.13;100.00
6899;BME280;3488;42.616;23.350;2023-10-19T07:02:40;63046.16;;;10.16;100.00
6899;BME280;3488;42.616;23.350;2023-10-19T07:05:08;63071.06;;;10.43;100.00
6899;BME280;3488;42.616;23.350;2023-10-19T07:07:38;63097.50;;;10.71;100.00
6899;BME280;3488;42.616;23.350;2023-10-19T07:10:07;63087.16;;;10.61;100.00
6899;BME280;3488;42.616;23.350;2023-10-19T07:12:35;63092.31;;;10.66;100.00
6899;BME280;3488;42.616;23.350;2023-10-19T07:15:06;63090.25;;;10.64;100.00
6899;BME280;3488;42.616;23.350;2023-10-19T07:17:34;63087.63;;;10.59;100.00
6899;BME280;3488;42.616;23.350;2023-10-19T07:20:04;63091.25;;;10.63;100.00
6899;BME280;3488;42.616;23.350;2023-10-19T07:22:32;63094.28;;;10.63;100.00
6899;BME280;3488;42.616;23.350;2023-10-19T07:24:59;63085.00;;;10.54;100.00
6899;BME280;3488;42.616;23.350;2023-10-19T07:27:27;63123.34;;;10.94;100.00
6899;BME280;3488;42.616;23.350;2023-10-19T07:29:54;63114.97;;;10.81;100.00
6899;BME280;3488;42.616;23.350;2023-10-19T07:32:23;63123.28;;;10.91;100.00
6899;BME280;3488;42.616;23.350;2023-10-19T07:34:51;63138.84;;;11.09;100.00
6899;BME280;3488;42.616;23.350;2023-10-19T07:37:18;63145.03;;;11.12;100.00
6899;BME280;3488;42.616;23.350;2023-10-19T07:39:46;63164.72;;;11.31;100.00
6899;BME280;3488;42.616;23.350;2023-10-19T07:42:14;63188.63;;;11.59;100.00
6899;BME280;3488;42.616;23.350;2023-10-19T07:44:41;63186.97;;;11.53;100.00
6899;BME280;3488;42.616;23.350;2023-10-19T07:47:09;63208.75;;;11.74;100.00
6899;BME280;3488;42.616;23.350;2023-10-19T07:49:37;63229.00;;;11.96;100.00
6899;BME280;3488;42.616;23.350;2023-10-19T07:52:05;63210.81;;;11.76;100.00
6899;BME280;3488;42.616;23.350;2023-10-19T07:54:33;63196.31;;;11.62;100.00
6899;BME280;3488;42.616;23.350;2023-10-19T07:57:00;63174.59;;;11.43;100.00
6899;BME280;3488;42.616;23.350;2023-10-19T07:59:31;63156.00;;;11.28;100.00
6899;BME280;3488;42.616;23.350;2023-10-19T08:01:58;63162.16;;;11.31;100.00
6899;BME280;3488;42.616;23.350;2023-10-19T08:04:27;63170.38;;;11.34;100.00
6899;BME280;3488;42.616;23.350;2023-10-19T08:06:56;63163.66;;;11.30;100.00
6899;BME280;3488;42.616;23.350;2023-10-19T08:09:24;63154.91;;;11.24;100.00
6899;BME280;3488;42.616;23.350;2023-10-19T08:11:57;63156.00;;;11.28;100.00
6899;BME280;3488;42.616;23.350;2023-10-19T08:14:25;63157.50;;;11.27;100.00
6899;BME280;3488;42.616;23.350;2023-10-19T08:16:52;63132.59;;;11.00;100.00
6899;BME280;3488;42.616;23.350;2023-10-19T08:19:20;63136.22;;;11.04;100.00
6899;BME280;3488;42.616;23.350;2023-10-19T08:21:48;63159.00;;;11.26;100.00
6899;BME280;3488;42.616;23.350;2023-10-19T08:24:16;63150.22;;;11.17;100.00
6899;BME280;3488;42.616;23.350;2023-10-19T08:26:45;63110.94;;;10.84;100.00
6899;BME280;3488;42.616;23.350;2023-10-19T08:29:12;63126.44;;;10.97;100.00
6899;BME280;3488;42.616;23.350;2023-10-19T08:31:40;63111.41;;;10.82;100.00
6899;BME280;3488;42.616;23.350;2023-10-19T08:34:07;63142.47;;;11.12;100.00
6899;BME280;3488;42.616;23.350;2023-10-19T08:36:36;63167.81;;;11.34;100.00
6899;BME280;3488;42.616;23.350;2023-10-19T08:39:04;63180.25;;;11.46;100.00
6899;BME280;3488;42.616;23.350;2023-10-19T08:41:34;63174.53;;;11.41;100.00
6899;BME280;3488;42.616;23.350;2023-10-19T08:44:03;63195.31;;;11.63;100.00
6899;BME280;3488;42.616;23.350;2023-10-19T08:46:36;63217.09;;;11.85;100.00
6899;BME280;3488;42.616;23.350;2023-10-19T08:49:04;63225.44;;;11.98;100.00
6899;BME280;3488;42.616;23.350;2023-10-19T08:51:32;63269.38;;;12.33;100.00
6899;BME280;3488;42.616;23.350;2023-10-19T08:54:01;63289.63;;;12.55;100.00
6899;BME280;3488;42.616;23.350;2023-10-19T08:56:29;63287.03;;;12.52;100.00
6899;BME280;3488;42.616;23.350;2023-10-19T08:58:58;63283.41;;;12.49;100.00
6899;BME280;3488;42.616;23.350;2023-10-19T09:01:27;63279.31;;;12.47;100.00
6899;BME280;3488;42.616;23.350;2023-10-19T09:03:57;63272.53;;;12.38;100.00
6899;BME280;3488;42.616;23.350;2023-10-19T09:06:24;63275.09;;;12.38;100.00
6899;BME280;3488;42.616;23.350;2023-10-19T09:08:54;63276.16;;;12.42;100.00
6899;BME280;3488;42.616;23.350;2023-10-19T09:11:24;63261.66;;;12.28;100.00
6899;BME280;3488;42.616;23.350;2023-10-19T09:13:52;63291.22;;;12.59;100.00
6899;BME280;3488;42.616;23.350;2023-10-19T09:16:21;63324.31;;;12.84;99.43
6899;BME280;3488;42.616;23.350;2023-10-19T09:18:49;63327.41;;;12.87;98.38
6899;BME280;3488;42.616;23.350;2023-10-19T09:21:18;63341.03;;;13.07;98.53
6899;BME280;3488;42.616;23.350;2023-10-19T09:23:51;63370.56;;;13.36;94.67
6899;BME280;3488;42.616;23.350;2023-10-19T09:26:19;63423.84;;;13.75;93.23
6899;BME280;3488;42.616;23.350;2023-10-19T09:28:49;63449.97;;;14.13;90.76
6899;BME280;3488;42.616;23.350;2023-10-19T09:31:16;63491.97;;;14.48;91.52
6899;BME280;3488;42.616;23.350;2023-10-19T09:33:46;63515.91;;;14.74;89.57
6899;BME280;3488;42.616;23.350;2023-10-19T09:36:14;63508.59;;;14.64;83.42
6899;BME280;3488;42.616;23.350;2023-10-19T09:38:47;63532.56;;;14.92;84.85
6899;BME280;3488;42.616;23.350;2023-10-19T09:41:18;63514.38;;;14.75;80.27
6899;BME280;3488;42.616;23.350;2023-10-19T09:43:46;63507.00;;;14.60;81.81
6899;BME280;3488;42.616;23.350;2023-10-19T09:46:21;63527.78;;;14.80;83.20
6899;BME280;3488;42.616;23.350;2023-10-19T09:48:49;63513.31;;;14.71;82.41
6899;BME280;3488;42.616;23.350;2023-10-19T09:51:18;63471.75;;;14.31;83.71
6899;BME280;3488;42.616;23.350;2023-10-19T09:53:51;63470.72;;;14.30;84.84
6899;BME280;3488;42.616;23.350;2023-10-19T09:56:24;63488.38;;;14.47;85.40
6899;BME280;3488;42.616;23.350;2023-10-19T09:58:55;63481.13;;;14.40;85.99
6899;BME280;3488;42.616;23.350;2023-10-19T10:01:24;63444.25;;;14.05;84.72
6899;BME280;3488;42.616;23.350;2023-10-19T10:03:53;63440.56;;;13.99;86.95
6899;BME280;3488;42.616;23.350;2023-10-19T10:06:29;63458.22;;;14.16;87.42
6899;BME280;3488;42.616;23.350;2023-10-19T10:09:00;63466.50;;;14.24;87.32
6899;BME280;3488;42.616;23.350;2023-10-19T10:11:29;63466.09;;;14.28;88.10
6899;BME280;3488;42.616;23.350;2023-10-19T10:13:57;63484.19;;;14.41;85.34
6899;BME280;3488;42.616;23.350;2023-10-19T10:16:25;63461.84;;;14.19;86.46
6899;BME280;3488;42.616;23.350;2023-10-19T10:18:56;63474.84;;;14.32;85.80
6899;BME280;3488;42.616;23.350;2023-10-19T10:21:25;63467.13;;;14.29;84.77
6899;BME280;3488;42.616;23.350;2023-10-19T10:23:55;63475.84;;;14.30;83.89
6899;BME280;3488;42.616;23.350;2023-10-19T10:26:24;63453.56;;;14.14;87.20
6899;BME280;3488;42.616;23.350;2023-10-19T10:29:11;63467.09;;;14.27;86.88
6899;BME280;3488;42.616;23.350;2023-10-19T10:31:43;63474.84;;;14.32;87.16
6899;BME280;3488;42.616;23.350;2023-10-19T10:34:42;63482.63;;;14.39;84.60
6899;BME280;3488;42.616;23.350;2023-10-19T10:37:10;63457.66;;;14.13;85.41
6899;BME280;3488;42.616;23.350;2023-10-19T10:39:39;63453.03;;;14.11;88.14
6899;BME280;3488;42.616;23.350;2023-10-19T10:42:08;63467.03;;;14.24;86.23
6899;BME280;3488;42.616;23.350;2023-10-19T10:44:37;63462.91;;;14.23;84.19
6899;BME280;3488;42.616;23.350;2023-10-19T10:47:06;63481.06;;;14.38;85.85
6899;BME280;3488;42.616;23.350;2023-10-19T10:49:45;63507.03;;;14.63;83.95
6899;BME280;3488;42.616;23.350;2023-10-19T10:52:23;63523.16;;;14.81;83.02
6899;BME280;3488;42.616;23.350;2023-10-19T10:54:51;63537.72;;;14.95;82.42
6899;BME280;3488;42.616;23.350;2023-10-19T10:57:19;63562.09;;;15.16;83.96
6899;BME280;3488;42.616;23.350;2023-10-19T11:00:00;63582.34;;;15.33;82.91
6899;BME280;3488;42.616;23.350;2023-10-19T11:02:29;63601.13;;;15.56;81.28
6899;BME280;3488;42.616;23.350;2023-10-19T11:04:58;63611.53;;;15.66;78.39
6899;BME280;3488;42.616;23.350;2023-10-19T11:07:25;63615.09;;;15.65;78.95
6899;BME280;3488;42.616;23.350;2023-10-19T11:09:52;63631.28;;;15.85;76.69
6899;BME280;3488;42.616;23.350;2023-10-19T11:12:20;63634.94;;;15.91;77.99
6899;BME280;3488;42.616;23.350;2023-10-19T11:14:53;63676.47;;;16.27;77.42
6899;BME280;3488;42.616;23.350;2023-10-19T11:17:21;63671.84;;;16.25;74.96
6899;BME280;3488;42.616;23.350;2023-10-19T11:19:54;63660.94;;;16.16;76.63
6899;BME280;3488;42.616;23.350;2023-10-19T11:22:24;63672.31;;;16.23;77.17
6899;BME280;3488;42.616;23.350;2023-10-19T11:24:52;63685.31;;;16.35;76.29
6899;BME280;3488;42.616;23.350;2023-10-19T11:27:27;63678.63;;;16.34;74.79
6899;BME280;3488;42.616;23.350;2023-10-19T11:29:55;63676.00;;;16.29;75.22
6899;BME280;3488;42.616;23.350;2023-10-19T11:32:22;63664.50;;;16.12;76.35
6899;BME280;3488;42.616;23.350;2023-10-19T11:34:51;63685.25;;;16.30;76.86
6899;BME280;3488;42.616;23.350;2023-10-19T11:37:20;63679.66;;;16.35;74.72
6899;BME280;3488;42.616;23.350;2023-10-19T11:39:48;63688.97;;;16.39;76.95
6899;BME280;3488;42.616;23.350;2023-10-19T11:42:17;63695.19;;;16.45;75.33
6899;BME280;3488;42.616;23.350;2023-10-19T11:44:45;63711.38;;;16.63;75.43
6899;BME280;3488;42.616;23.350;2023-10-19T11:47:12;63716.53;;;16.63;74.96
6899;BME280;3488;42.616;23.350;2023-10-19T11:49:40;63726.94;;;16.73;73.24
6899;BME280;3488;42.616;23.350;2023-10-19T11:52:07;63734.19;;;16.77;72.47
6899;BME280;3488;42.616;23.350;2023-10-19T11:54:35;63728.00;;;16.76;72.47
6899;BME280;3488;42.616;23.350;2023-10-19T11:57:04;63738.88;;;16.84;74.25
6899;BME280;3488;42.616;23.350;2023-10-19T11:59:32;63750.41;;;17.00;71.65
6899;BME280;3488;42.616;23.350;2023-10-19T12:01:59;63754.56;;;17.04;70.33
6899;BME280;3488;42.616;23.350;2023-10-19T12:04:29;63768.03;;;17.12;70.87
6899;BME280;3488;42.616;23.350;2023-10-19T12:06:58;63745.72;;;16.96;71.40
6899;BME280;3488;42.616;23.350;2023-10-19T12:09:26;63770.13;;;17.14;72.67
6899;BME280;3488;42.616;23.350;2023-10-19T12:11:53;63785.25;;;17.31;70.36
6899;BME280;3488;42.616;23.350;2023-10-19T12:14:23;63801.41;;;17.47;69.86
6899;BME280;3488;42.616;23.350;2023-10-19T12:16:50;63808.66;;;17.52;68.95
6899;BME280;3488;42.616;23.350;2023-10-19T12:19:18;63821.72;;;17.69;71.23
6899;BME280;3488;42.616;23.350;2023-10-19T12:21:46;63840.44;;;17.82;68.51
6899;BME280;3488;42.616;23.350;2023-10-19T12:24:15;63849.28;;;17.91;67.52
6899;BME280;3488;42.616;23.350;2023-10-19T12:26:42;63851.91;;;17.96;67.88
6899;BME280;3488;42.616;23.350;2023-10-19T12:29:10;63854.00;;;17.98;65.67
6899;BME280;3488;42.616;23.350;2023-10-19T12:31:42;63870.09;;;18.11;65.44
6899;BME280;3488;42.616;23.350;2023-10-19T12:34:11;63859.72;;;18.03;64.46
6899;BME280;3488;42.616;23.350;2023-10-19T12:36:38;63877.94;;;18.18;66.98
6899;BME280;3488;42.616;23.350;2023-10-19T12:39:06;63894.09;;;18.36;63.76
6899;BME280;3488;42.616;23.350;2023-10-19T12:41:35;63894.69;;;18.42;63.81
6899;BME280;3488;42.616;23.350;2023-10-19T12:44:04;63916.47;;;18.53;63.50
6899;BME280;3488;42.616;23.350;2023-10-19T12:46:34;63924.31;;;18.63;62.48
6899;BME280;3488;42.616;23.350;2023-10-19T12:49:04;63932.69;;;18.74;62.82
6899;BME280;3488;42.616;23.350;2023-10-19T12:51:33;63934.25;;;18.75;61.57
6899;BME280;3488;42.616;23.350;2023-10-19T12:54:01;63942.59;;;18.86;61.93
6899;BME280;3488;42.616;23.350;2023-10-19T12:56:29;63959.75;;;18.97;61.72
6899;BME280;3488;42.616;23.350;2023-10-19T12:58:58;63963.94;;;19.04;59.81
6899;BME280;3488;42.616;23.350;2023-10-19T13:01:25;63974.88;;;19.12;59.38
6899;BME280;3488;42.616;23.350;2023-10-19T13:03:53;63978.00;;;19.15;59.07
6899;BME280;3488;42.616;23.350;2023-10-19T13:06:23;63985.34;;;19.27;58.87
6899;BME280;3488;42.616;23.350;2023-10-19T13:08:54;63992.13;;;19.33;59.27
6899;BME280;3488;42.616;23.350;2023-10-19T13:11:21;63983.84;;;19.30;59.26
6899;BME280;3488;42.616;23.350;2023-10-19T13:13:48;63997.34;;;19.36;58.69
6899;BME280;3488;42.616;23.350;2023-10-19T13:16:16;63991.59;;;19.33;59.65
6899;BME280;3488;42.616;23.350;2023-10-19T13:18:43;64000.41;;;19.36;59.51
6899;BME280;3488;42.616;23.350;2023-10-19T13:21:11;64003.56;;;19.39;58.80